Time;durP1;ratioP1;P1;durP2;ratioP2;P2;SDS_P1;SDS_P2;PMS_P1;PMS_P2;Temp;Humidity;BMP_temperature;BMP_pressure;BME280_temperature;BME280_humidity;BME280_pressure;Samples;Min_cycle;Max_cycle;Signal;HPM_P1;HPM_P2
2023/08/18 00:00:01;;;;;;;7.77;7.00;;;22.70;94.40;;;;;;6171262;23;20393;-72
2023/08/18 00:02:36;;;;;;;7.17;6.53;;;22.70;94.40;;;;;;6172910;23;20423;-72
2023/08/18 00:05:04;;;;;;;7.90;7.20;;;22.70;94.40;;;;;;6169843;23;20451;-72
2023/08/18 00:07:33;;;;;;;7.80;7.10;;;22.70;94.40;;;;;;6172980;23;20810;-72
2023/08/18 00:10:04;;;;;;;8.80;8.00;;;22.70;94.40;;;;;;6171204;23;20396;-72
2023/08/18 00:12:33;;;;;;;6.83;5.60;;;22.70;94.40;;;;;;6170080;23;20949;-72
2023/08/18 00:15:02;;;;;;;12.63;8.60;;;22.70;94.40;;;;;;6171897;23;20392;-72
2023/08/18 00:17:30;;;;;;;10.83;8.00;;;22.60;94.40;;;;;;6171577;23;20411;-72
2023/08/18 00:19:59;;;;;;;8.63;7.77;;;22.70;94.40;;;;;;6169678;23;20901;-72
2023/08/18 00:22:28;;;;;;;16.03;8.43;;;22.70;94.40;;;;;;6170568;23;20921;-72
2023/08/18 00:24:57;;;;;;;8.40;7.60;;;22.70;94.40;;;;;;6171850;23;20472;-72
2023/08/18 00:27:26;;;;;;;8.70;7.83;;;22.70;94.40;;;;;;6172152;23;20739;-72
2023/08/18 00:29:55;;;;;;;7.83;7.13;;;22.70;94.40;;;;;;6170890;23;20389;-72
2023/08/18 00:32:24;;;;;;;7.33;6.63;;;22.60;94.40;;;;;;6171053;23;20432;-72
2023/08/18 00:34:53;;;;;;;7.00;6.30;;;22.70;94.40;;;;;;6170724;23;20396;-72
2023/08/18 00:37:23;;;;;;;11.30;7.80;;;22.60;94.40;;;;;;6171330;23;20462;-72
2023/08/18 00:39:52;;;;;;;7.80;7.10;;;22.60;94.50;;;;;;6170793;23;20408;-72
2023/08/18 00:42:20;;;;;;;7.33;6.73;;;22.70;94.50;;;;;;6170631;23;20874;-72
2023/08/18 00:44:50;;;;;;;7.40;6.70;;;22.60;94.40;;;;;;6173059;23;20411;-72
2023/08/18 00:47:19;;;;;;;7.00;6.50;;;22.60;94.40;;;;;;6171779;23;20933;-73
2023/08/18 00:49:48;;;;;;;8.90;8.10;;;22.60;94.50;;;;;;6171526;23;20487;-73
2023/08/18 00:52:18;;;;;;;7.30;6.60;;;22.60;94.40;;;;;;6171844;23;20805;-73
2023/08/18 00:54:50;;;;;;;7.97;7.30;;;22.60;94.50;;;;;;6171530;23;20392;-73
2023/08/18 00:57:19;;;;;;;6.90;6.40;;;22.60;94.60;;;;;;6172751;23;20898;-73
2023/08/18 00:59:49;;;;;;;7.23;6.70;;;22.70;94.60;;;;;;6171369;23;20435;-73
2023/08/18 01:02:19;;;;;;;5.90;5.40;;;22.70;94.60;;;;;;6173069;23;20851;-72
2023/08/18 01:04:48;;;;;;;6.33;5.73;;;22.60;94.50;;;;;;6171426;23;20377;-72
2023/08/18 01:07:16;;;;;;;6.60;6.00;;;22.60;94.60;;;;;;6171460;23;20427;-72
2023/08/18 01:09:46;;;;;;;7.53;6.93;;;22.60;94.60;;;;;;6171250;23;20415;-72
2023/08/18 01:12:28;;;;;;;6.80;6.17;;;22.60;94.60;;;;;;6170597;23;20809;-72
2023/08/18 01:15:06;;;;;;;6.97;6.40;;;22.60;94.60;;;;;;6172103;23;20422;-72
2023/08/18 01:17:44;;;;;;;7.77;7.00;;;22.60;94.60;;;;;;6171364;23;20423;-72
2023/08/18 01:20:13;;;;;;;7.30;6.70;;;22.60;94.60;;;;;;6169670;23;20436;-72
2023/08/18 01:22:42;;;;;;;6.23;5.73;;;22.60;94.60;;;;;;6170880;23;20750;-72
2023/08/18 01:25:12;;;;;;;8.17;7.37;;;22.60;94.70;;;;;;6171624;23;20420;-72
2023/08/18 01:27:40;;;;;;;8.10;7.40;;;22.60;94.70;;;;;;6173331;23;20485;-72
2023/08/18 01:30:11;;;;;;;7.43;6.63;;;22.60;94.70;;;;;;6170231;23;20816;-72
2023/08/18 01:32:47;;;;;;;7.77;7.03;;;22.60;94.60;;;;;;6170700;23;20421;-72
2023/08/18 01:35:17;;;;;;;7.57;6.97;;;22.60;94.50;;;;;;6170610;23;20446;-72
2023/08/18 01:37:47;;;;;;;8.03;7.33;;;22.60;94.60;;;;;;6170952;23;20413;-72
2023/08/18 01:40:18;;;;;;;7.83;7.07;;;22.60;94.60;;;;;;6171489;23;20432;-72
2023/08/18 01:42:47;;;;;;;6.97;6.37;;;22.60;94.70;;;;;;6169180;23;20941;-72
2023/08/18 01:45:16;;;;;;;7.60;6.90;;;22.60;94.70;;;;;;6169907;23;20409;-72
2023/08/18 01:47:44;;;;;;;8.00;7.30;;;22.60;94.70;;;;;;6170383;23;20416;-72
2023/08/18 01:50:13;;;;;;;7.73;7.03;;;22.60;94.70;;;;;;6170711;23;20474;-72
2023/08/18 01:52:42;;;;;;;7.80;7.10;;;22.60;94.70;;;;;;6175252;23;20499;-72
2023/08/18 01:55:10;;;;;;;6.97;6.37;;;22.60;94.70;;;;;;6175174;23;20411;-72
2023/08/18 01:57:40;;;;;;;8.40;7.70;;;22.60;94.80;;;;;;6171512;23;20767;-72
2023/08/18 02:00:09;;;;;;;7.23;6.57;;;22.60;94.80;;;;;;6171289;23;20436;-72
2023/08/18 02:02:49;;;;;;;8.10;7.43;;;22.60;94.90;;;;;;6175263;23;20495;-72
2023/08/18 02:05:17;;;;;;;7.40;6.70;;;22.60;94.90;;;;;;6174796;23;20384;-72
2023/08/18 02:07:46;;;;;;;8.10;7.40;;;22.50;94.90;;;;;;6176167;23;20469;-72
2023/08/18 02:10:14;;;;;;;9.40;8.60;;;22.60;94.90;;;;;;6175646;23;20749;-72
2023/08/18 02:12:44;;;;;;;8.47;7.67;;;22.50;94.90;;;;;;6174080;23;20432;-72
2023/08/18 02:15:12;;;;;;;7.83;7.00;;;22.50;94.90;;;;;;6175699;23;20389;-72
2023/08/18 02:17:41;;;;;;;8.63;7.83;;;22.50;95.00;;;;;;6175615;23;20420;-72
2023/08/18 02:20:10;;;;;;;7.60;6.90;;;22.50;95.00;;;;;;6173637;23;20424;-72
2023/08/18 02:22:39;;;;;;;7.37;6.60;;;22.50;95.00;;;;;;6176494;23;20397;-72
2023/08/18 02:25:08;;;;;;;5.90;5.40;;;22.60;95.10;;;;;;6175165;23;20886;-72
2023/08/18 02:27:36;;;;;;;7.90;7.27;;;22.50;95.00;;;;;;6175329;23;20774;-72
2023/08/18 02:30:07;;;;;;;5.87;5.37;;;22.50;95.10;;;;;;6176156;23;20770;-72
2023/08/18 02:32:35;;;;;;;7.20;6.50;;;22.50;95.10;;;;;;6174603;23;20412;-73
2023/08/18 02:35:05;;;;;;;8.80;7.90;;;22.50;95.10;;;;;;6174115;23;20969;-73
2023/08/18 02:37:33;;;;;;;9.33;8.50;;;22.50;95.10;;;;;;6175162;23;20417;-72
2023/08/18 02:40:03;;;;;;;8.00;7.40;;;22.60;95.20;;;;;;6174876;23;20411;-72
2023/08/18 02:42:34;;;;;;;8.80;7.90;;;22.50;95.10;;;;;;6173919;23;20457;-72
2023/08/18 02:45:02;;;;;;;7.50;6.80;;;22.50;95.20;;;;;;6175283;23;20400;-72
2023/08/18 02:47:32;;;;;;;8.10;7.40;;;22.50;95.20;;;;;;6175400;23;20784;-72
2023/08/18 02:50:01;;;;;;;9.33;7.63;;;22.50;95.20;;;;;;6176301;23;20369;-72
2023/08/18 02:52:29;;;;;;;6.93;6.33;;;22.50;95.20;;;;;;6149123;23;20432;-72
2023/08/18 02:54:58;;;;;;;8.03;7.33;;;22.50;95.20;;;;;;6174912;23;20413;-72
2023/08/18 02:57:26;;;;;;;9.40;8.50;;;22.50;95.30;;;;;;6175075;23;20425;-72
2023/08/18 02:59:55;;;;;;;8.47;7.67;;;22.50;95.30;;;;;;6174809;23;20427;-72
2023/08/18 03:02:23;;;;;;;8.80;8.00;;;22.50;95.30;;;;;;6174571;23;20393;-72
2023/08/18 03:04:53;;;;;;;8.03;7.13;;;22.50;95.30;;;;;;6171969;23;20415;-72
2023/08/18 03:07:22;;;;;;;9.43;8.50;;;22.50;95.40;;;;;;6173964;23;20448;-72
2023/08/18 03:09:51;;;;;;;10.43;9.33;;;22.50;95.40;;;;;;6171637;23;20411;-72
2023/08/18 03:12:19;;;;;;;8.20;7.40;;;22.50;95.50;;;;;;6172066;23;20420;-72
2023/08/18 03:14:48;;;;;;;8.33;7.53;;;22.50;95.50;;;;;;6171720;23;20766;-72
2023/08/18 03:17:16;;;;;;;8.67;7.87;;;22.50;96.00;;;;;;6171325;23;20471;-72
2023/08/18 03:19:44;;;;;;;8.90;8.00;;;22.50;95.50;;;;;;6171353;23;20400;-72
2023/08/18 03:22:14;;;;;;;9.70;8.70;;;22.50;95.60;;;;;;6170992;23;20707;-72
2023/08/18 03:24:43;;;;;;;7.67;6.97;;;22.50;95.60;;;;;;6171428;23;20397;-72
2023/08/18 03:27:11;;;;;;;7.67;6.97;;;22.50;95.60;;;;;;6170985;23;20968;-72
2023/08/18 03:29:40;;;;;;;7.87;7.07;;;22.50;95.60;;;;;;6171969;23;20407;-72
2023/08/18 03:32:08;;;;;;;8.27;7.53;;;22.50;95.60;;;;;;6170911;23;20445;-72
2023/08/18 03:34:36;;;;;;;7.70;7.10;;;22.50;95.60;;;;;;6171171;23;20401;-72
2023/08/18 03:37:05;;;;;;;7.70;7.10;;;22.50;95.70;;;;;;6171212;23;20447;-72
2023/08/18 03:39:35;;;;;;;7.27;6.67;;;22.50;95.70;;;;;;6172270;23;20411;-72
2023/08/18 03:42:03;;;;;;;7.40;6.80;;;22.50;95.60;;;;;;6171121;23;20565;-72
2023/08/18 03:44:31;;;;;;;8.17;7.43;;;22.50;95.60;;;;;;6172681;23;20454;-72
2023/08/18 03:47:00;;;;;;;6.73;6.13;;;22.50;95.70;;;;;;6171295;23;20444;-72
2023/08/18 03:49:29;;;;;;;7.13;6.53;;;22.40;95.70;;;;;;6171272;23;20428;-72
2023/08/18 03:51:58;;;;;;;7.10;6.50;;;22.40;95.70;;;;;;6170832;23;20437;-72
2023/08/18 03:54:26;;;;;;;6.40;5.80;;;22.50;95.80;;;;;;6171642;23;20424;-73
2023/08/18 03:56:56;;;;;;;7.50;6.80;;;22.50;95.80;;;;;;6170729;23;20436;-73
2023/08/18 03:59:25;;;;;;;6.27;5.77;;;22.40;95.80;;;;;;6172139;23;20393;-73
2023/08/18 04:01:53;;;;;;;7.57;6.93;;;22.40;95.80;;;;;;6174167;23;20824;-73
2023/08/18 04:04:22;;;;;;;7.67;6.97;;;22.50;95.90;;;;;;6172791;23;20429;-72
2023/08/18 04:06:50;;;;;;;8.53;7.63;;;22.50;95.90;;;;;;6172341;22;20439;-72
2023/08/18 04:09:18;;;;;;;6.47;5.97;;;22.40;96.00;;;;;;6172375;23;20798;-72
2023/08/18 04:11:47;;;;;;;8.03;7.33;;;22.40;95.90;;;;;;6170501;23;20458;-72
2023/08/18 04:14:18;;;;;;;7.53;6.83;;;22.40;95.90;;;;;;6171691;23;20451;-72
2023/08/18 04:16:46;;;;;;;7.67;7.07;;;22.40;96.00;;;;;;6171081;23;20437;-72
2023/08/18 04:19:15;;;;;;;7.60;6.90;;;22.40;96.00;;;;;;6171021;23;20777;-72
2023/08/18 04:21:44;;;;;;;8.83;7.93;;;22.40;96.00;;;;;;6171095;23;20911;-72
2023/08/18 04:24:13;;;;;;;7.10;6.50;;;22.40;96.10;;;;;;6171725;23;20771;-72
2023/08/18 04:26:43;;;;;;;6.63;6.07;;;22.40;96.10;;;;;;6146155;23;20459;-72
2023/08/18 04:29:12;;;;;;;7.37;6.67;;;22.40;96.10;;;;;;6171630;23;20402;-72
2023/08/18 04:31:42;;;;;;;7.60;6.90;;;22.40;96.10;;;;;;6170712;23;20436;-72
2023/08/18 04:34:14;;;;;;;6.93;6.33;;;22.40;96.10;;;;;;6171010;23;20413;-72
2023/08/18 04:36:43;;;;;;;7.90;7.10;;;22.40;96.10;;;;;;6171038;23;20433;-72
2023/08/18 04:39:11;;;;;;;8.40;7.60;;;22.40;96.10;;;;;;6172534;23;20400;-72
2023/08/18 04:41:40;;;;;;;7.87;7.17;;;22.40;96.20;;;;;;6171539;23;20486;-72
2023/08/18 04:44:08;;;;;;;7.57;6.87;;;22.40;96.20;;;;;;6170965;23;20458;-72
2023/08/18 04:46:38;;;;;;;7.10;6.50;;;22.40;96.20;;;;;;6170735;23;20437;-72
2023/08/18 04:49:28;;;;;;;8.20;7.50;;;22.40;96.20;;;;;;6171984;23;20417;-72
2023/08/18 04:51:57;;;;;;;7.40;6.70;;;22.40;96.20;;;;;;6170400;23;20432;-72
2023/08/18 04:54:25;;;;;;;8.33;7.53;;;22.40;96.20;;;;;;6171081;23;20421;-72
2023/08/18 04:56:58;;;;;;;9.30;8.27;;;22.40;96.30;;;;;;6170484;23;20975;-72
2023/08/18 04:59:27;;;;;;;7.57;6.87;;;22.40;96.40;;;;;;6171477;23;20389;-72
2023/08/18 05:01:58;;;;;;;8.13;7.33;;;22.40;96.40;;;;;;6171657;23;20436;-72
2023/08/18 05:04:28;;;;;;;7.30;6.70;;;22.40;96.50;;;;;;6170906;23;20909;-72
2023/08/18 05:06:57;;;;;;;9.30;6.90;;;22.40;96.50;;;;;;6171683;23;20494;-72
2023/08/18 05:09:25;;;;;;;7.67;6.97;;;22.40;96.50;;;;;;6172146;23;20395;-73
2023/08/18 05:11:53;;;;;;;7.13;6.53;;;22.40;96.50;;;;;;6173252;22;20429;-73
2023/08/18 05:14:22;;;;;;;6.97;6.37;;;22.40;96.60;;;;;;6171368;23;20750;-73
2023/08/18 05:16:51;;;;;;;8.57;7.77;;;22.40;96.60;;;;;;6172798;22;20433;-72
2023/08/18 05:19:19;;;;;;;6.90;6.30;;;22.30;96.60;;;;;;6167791;23;20409;-72
2023/08/18 05:21:49;;;;;;;6.60;6.00;;;22.30;96.60;;;;;;6170340;23;20460;-72
2023/08/18 05:24:18;;;;;;;6.90;6.30;;;22.30;96.70;;;;;;6170865;23;20401;-72
2023/08/18 05:26:46;;;;;;;7.60;7.00;;;22.30;97.20;;;;;;6170275;23;20462;-72
2023/08/18 05:29:16;;;;;;;5.80;5.30;;;22.30;96.70;;;;;;6170323;23;20475;-72
2023/08/18 05:31:45;;;;;;;7.60;6.90;;;22.30;96.80;;;;;;6170308;23;20438;-72
2023/08/18 05:34:14;;;;;;;6.80;5.73;;;22.30;96.80;;;;;;6169954;23;20477;-72
2023/08/18 05:36:42;;;;;;;6.33;5.77;;;22.30;96.90;;;;;;6172198;22;20436;-72
2023/08/18 05:39:12;;;;;;;9.23;8.43;;;22.30;96.90;;;;;;6171762;23;20389;-72
2023/08/18 05:41:40;;;;;;;7.53;6.83;;;22.30;97.00;;;;;;6169850;23;20486;-72
2023/08/18 05:44:08;;;;;;;8.00;7.20;;;22.30;97.10;;;;;;6170818;23;20380;-72
2023/08/18 05:46:37;;;;;;;7.40;6.80;;;22.30;97.10;;;;;;6170002;23;20437;-72
2023/08/18 05:49:05;;;;;;;7.83;7.13;;;22.30;97.10;;;;;;6171154;23;20401;-72
2023/08/18 05:51:33;;;;;;;6.70;6.10;;;22.30;97.10;;;;;;6169108;23;20440;-72
2023/08/18 05:54:03;;;;;;;6.70;6.10;;;22.30;97.20;;;;;;6170442;23;20417;-72
2023/08/18 05:56:33;;;;;;;7.43;6.63;;;22.30;97.20;;;;;;6170142;23;20489;-72
2023/08/18 05:59:02;;;;;;;6.83;6.23;;;22.30;97.20;;;;;;6170335;23;20403;-72
2023/08/18 06:01:30;;;;;;;8.17;7.37;;;22.30;97.20;;;;;;6169492;23;20931;-72
2023/08/18 06:03:59;;;;;;;6.80;6.23;;;22.30;97.30;;;;;;6170797;23;20382;-72
2023/08/18 06:06:27;;;;;;;7.00;6.40;;;22.30;97.30;;;;;;6169182;23;20436;-72
2023/08/18 06:08:55;;;;;;;6.70;6.10;;;22.30;97.20;;;;;;6170472;23;20400;-72
2023/08/18 06:11:24;;;;;;;7.93;7.23;;;22.30;97.20;;;;;;6169755;23;20443;-72
2023/08/18 06:13:54;;;;;;;7.53;6.83;;;22.30;97.30;;;;;;6171765;23;20416;-72
2023/08/18 06:16:22;;;;;;;7.23;6.53;;;22.30;97.30;;;;;;6172040;23;20437;-72
2023/08/18 06:18:50;;;;;;;7.20;6.60;;;22.30;97.30;;;;;;6170685;23;20446;-72
2023/08/18 06:21:19;;;;;;;6.87;6.23;;;22.30;97.30;;;;;;6170874;22;20468;-72
2023/08/18 06:23:47;;;;;;;7.30;6.70;;;22.30;97.30;;;;;;6170362;23;20882;-72
2023/08/18 06:26:16;;;;;;;6.87;6.27;;;22.20;97.30;;;;;;6170036;23;20432;-72
2023/08/18 06:28:45;;;;;;;6.67;6.07;;;22.30;97.30;;;;;;6145652;23;20775;-72
2023/08/18 06:31:14;;;;;;;6.60;6.00;;;22.30;97.40;;;;;;6169889;23;20962;-74
2023/08/18 06:33:43;;;;;;;6.87;6.27;;;22.20;97.30;;;;;;6171230;23;20433;-72
2023/08/18 06:36:11;;;;;;;6.90;6.23;;;22.20;97.30;;;;;;6170191;23;20443;-72
2023/08/18 06:38:39;;;;;;;8.13;7.20;;;22.20;97.40;;;;;;6172859;23;20412;-73
2023/08/18 06:41:08;;;;;;;7.23;6.53;;;22.20;97.50;;;;;;6170763;23;20436;-73
2023/08/18 06:43:36;;;;;;;8.37;7.57;;;22.20;97.50;;;;;;6170663;23;20377;-73
2023/08/18 06:46:05;;;;;;;6.30;5.70;;;22.20;97.20;;;;;;6171782;23;20411;-73
2023/08/18 06:48:35;;;;;;;5.80;5.30;;;22.20;97.30;;;;;;6174303;23;20389;-73
2023/08/18 06:51:03;;;;;;;7.30;6.60;;;22.20;97.30;;;;;;6171296;23;20393;-73
2023/08/18 06:53:32;;;;;;;6.97;6.27;;;22.20;97.30;;;;;;6170908;23;20396;-73
2023/08/18 06:56:01;;;;;;;6.37;5.87;;;22.20;97.30;;;;;;6171364;23;20934;-72
2023/08/18 06:58:31;;;;;;;6.53;5.93;;;22.20;97.30;;;;;;6170533;23;20905;-72
2023/08/18 07:00:59;;;;;;;6.17;5.60;;;22.20;97.40;;;;;;6171171;23;20764;-72
2023/08/18 07:03:28;;;;;;;6.60;5.90;;;22.20;97.30;;;;;;6170661;23;20384;-73
2023/08/18 07:05:58;;;;;;;7.00;6.30;;;22.20;97.40;;;;;;6171305;23;20950;-72
2023/08/18 07:08:27;;;;;;;6.43;5.57;;;22.20;97.50;;;;;;6172550;23;20378;-73
2023/08/18 07:10:55;;;;;;;7.20;6.50;;;22.20;97.40;;;;;;6172670;23;20846;-73
2023/08/18 07:13:24;;;;;;;7.93;6.83;;;22.20;97.30;;;;;;6170165;23;20889;-73
2023/08/18 07:15:52;;;;;;;6.13;5.47;;;22.20;97.30;;;;;;6171026;23;20425;-71
2023/08/18 07:18:20;;;;;;;6.83;6.23;;;22.20;97.30;;;;;;6171539;23;20369;-73
2023/08/18 07:20:49;;;;;;;6.70;6.10;;;22.20;97.30;;;;;;6170165;23;20469;-73
2023/08/18 07:23:19;;;;;;;6.87;6.23;;;22.20;97.30;;;;;;6171882;23;20385;-72
2023/08/18 07:25:48;;;;;;;7.07;6.47;;;22.20;97.30;;;;;;6171268;23;20752;-72
2023/08/18 07:28:16;;;;;;;6.70;6.10;;;22.20;97.30;;;;;;6171056;23;20450;-72
2023/08/18 07:30:44;;;;;;;6.80;6.20;;;22.20;97.50;;;;;;6171227;23;20433;-72
2023/08/18 07:33:13;;;;;;;6.63;6.03;;;22.20;97.50;;;;;;6171401;23;20458;-72
2023/08/18 07:35:41;;;;;;;7.00;6.30;;;22.20;97.50;;;;;;6170713;23;20417;-73
2023/08/18 07:38:10;;;;;;;6.97;6.30;;;22.20;97.50;;;;;;6171644;23;20418;-73
2023/08/18 07:40:40;;;;;;;7.00;6.27;;;22.20;97.50;;;;;;6167050;23;20444;-72
2023/08/18 07:43:10;;;;;;;7.10;6.40;;;22.20;97.60;;;;;;6171374;23;20393;-72
2023/08/18 07:45:38;;;;;;;7.97;7.17;;;22.20;97.60;;;;;;6171208;23;20389;-72
2023/08/18 07:48:07;;;;;;;6.43;5.83;;;22.20;97.80;;;;;;6172223;23;20381;-72
2023/08/18 07:50:36;;;;;;;7.40;6.70;;;22.20;97.60;;;;;;6170242;23;20404;-72
2023/08/18 07:53:05;;;;;;;8.93;7.47;;;22.10;97.60;;;;;;6171531;23;20432;-72
2023/08/18 07:55:33;;;;;;;6.77;6.10;;;22.10;97.60;;;;;;6169820;23;20465;-72
2023/08/18 07:58:03;;;;;;;7.37;6.20;;;22.10;97.70;;;;;;6171251;23;20396;-72
2023/08/18 08:00:33;;;;;;;7.83;7.07;;;22.10;97.70;;;;;;6171489;23;20718;-72
2023/08/18 08:03:02;;;;;;;7.80;7.00;;;22.10;97.80;;;;;;6171338;23;20395;-72
2023/08/18 08:05:32;;;;;;;7.10;6.40;;;22.10;97.90;;;;;;6170330;23;20836;-72
2023/08/18 08:08:01;;;;;;;7.40;6.70;;;22.10;98.00;;;;;;6171798;23;20479;-72
2023/08/18 08:10:29;;;;;;;9.37;8.33;;;22.10;98.00;;;;;;6172145;23;20377;-72
2023/08/18 08:12:58;;;;;;;10.90;8.73;;;22.10;98.20;;;;;;6171159;23;20385;-72
2023/08/18 08:15:28;;;;;;;10.07;8.73;;;22.10;98.20;;;;;;6171864;23;20531;-72
2023/08/18 08:17:57;;;;;;;9.80;8.10;;;22.10;98.30;;;;;;6171848;23;20957;-72
2023/08/18 08:20:26;;;;;;;13.03;9.60;;;22.10;98.40;;;;;;6170067;23;20749;-72
2023/08/18 08:22:57;;;;;;;10.23;8.63;;;22.10;98.50;;;;;;6170982;23;20381;-72
2023/08/18 08:25:26;;;;;;;10.20;8.60;;;22.10;98.70;;;;;;6172071;23;20421;-72
2023/08/18 08:27:55;;;;;;;9.13;8.27;;;22.10;98.70;;;;;;6173026;23;20422;-72
2023/08/18 08:30:28;;;;;;;9.10;8.10;;;22.10;98.50;;;;;;6172322;23;20389;-71
2023/08/18 08:32:59;;;;;;;8.10;7.37;;;22.10;98.60;;;;;;6171053;23;20446;-72
2023/08/18 08:35:28;;;;;;;8.37;7.57;;;22.10;98.60;;;;;;6170849;23;20419;-73
2023/08/18 08:37:57;;;;;;;10.57;8.10;;;22.10;99.00;;;;;;6172481;23;20507;-71
2023/08/18 08:40:26;;;;;;;8.00;7.20;;;22.10;99.00;;;;;;6171287;23;20399;-72
2023/08/18 08:42:56;;;;;;;12.30;11.00;;;22.10;99.10;;;;;;6145697;23;20483;-72
2023/08/18 08:45:34;;;;;;;11.40;9.93;;;22.10;99.80;;;;;;6172580;23;20436;-72
2023/08/18 08:48:07;;;;;;;8.13;7.33;;;22.10;99.90;;;;;;6171365;23;20434;-72
2023/08/18 08:50:38;;;;;;;8.90;7.57;;;;;;;;;;6146233;23;20456;-72
2023/08/18 08:53:08;;;;;;;8.30;7.40;;;;;;;;;;6170710;23;20384;-72
2023/08/18 08:55:37;;;;;;;9.93;8.90;;;;;;;;;;6170414;23;20545;-72
2023/08/18 08:58:06;;;;;;;11.17;8.70;;;;;;;;;;6170216;23;20886;-72
2023/08/18 09:00:42;;;;;;;8.97;8.07;;;;;;;;;;6171340;23;20388;-72
2023/08/18 09:03:11;;;;;;;8.37;7.50;;;;;;;;;;6170466;23;20416;-72
2023/08/18 09:05:40;;;;;;;12.80;9.83;;;;;;;;;;6170503;23;20384;-72
2023/08/18 09:08:09;;;;;;;12.13;9.47;;;;;;;;;;6171427;23;20416;-72
2023/08/18 09:10:39;;;;;;;6.83;6.20;;;;;;;;;;6171283;23;20449;-72
2023/08/18 09:13:08;;;;;;;9.30;8.40;;;;;;;;;;6170554;23;20373;-72
2023/08/18 09:15:37;;;;;;;8.40;7.60;;;;;;;;;;6169300;23;20470;-72
2023/08/18 09:18:08;;;;;;;8.03;7.23;;;;;;;;;;6171080;23;20393;-72
2023/08/18 09:20:36;;;;;;;9.40;8.13;;;;;;;;;;6169236;23;20440;-72
2023/08/18 09:23:05;;;;;;;11.97;8.53;;;;;;;;;;6172039;23;20883;-73
2023/08/18 09:25:35;;;;;;;10.13;8.50;;;;;;;;;;6171291;23;20396;-73
2023/08/18 09:28:04;;;;;;;10.50;9.00;;;;;;;;;;6170021;23;20517;-73
2023/08/18 09:30:36;;;;;;;9.10;7.67;;;;;;;;;;6172027;23;20393;-73
2023/08/18 09:33:05;;;;;;;8.50;7.67;;;;;;;;;;6170173;23;20396;-73
2023/08/18 09:35:35;;;;;;;7.50;6.80;;;;;;;;;;6172537;23;20381;-73
2023/08/18 09:38:04;;;;;;;8.00;7.20;;;;;;;;;;6171277;23;20879;-73
2023/08/18 09:40:33;;;;;;;7.53;6.80;;;;;;;;;;6170919;23;20844;-73
2023/08/18 09:43:01;;;;;;;7.23;6.53;;;;;;;;;;6170067;23;20399;-73
2023/08/18 09:45:40;;;;;;;6.47;5.87;;;;;;;;;;6170204;23;20380;-73
2023/08/18 09:48:11;;;;;;;8.60;6.90;;;;;;;;;;6172817;23;20380;-72
2023/08/18 09:50:41;;;;;;;6.47;5.87;;;;;;;;;;6169020;23;20497;-72
2023/08/18 09:53:11;;;;;;;7.47;6.77;;;;;;;;;;6171044;23;20380;-72
2023/08/18 09:55:44;;;;;;;7.90;7.10;;;;;;;;;;6146678;23;20467;-72
2023/08/18 09:58:21;;;;;;;6.13;5.43;;;;;;;;;;6171493;23;20878;-72
2023/08/18 10:00:56;;;;;;;7.43;6.77;;;;;;;;;;6173288;23;20380;-72
2023/08/18 10:03:26;;;;;;;7.03;6.40;;;;;;;;;;6171596;23;20384;-72
2023/08/18 10:05:57;;;;;;;6.63;5.90;;;;;;;;;;6170393;23;20740;-72
2023/08/18 10:08:27;;;;;;;6.70;6.03;;;;;;;;;;6171354;23;20396;-72
2023/08/18 10:10:55;;;;;;;6.77;6.07;;;;;;;;;;6172839;23;20437;-72
2023/08/18 10:13:25;;;;;;;6.60;6.00;;;;;;;;;;6173154;23;20949;-72
2023/08/18 10:15:54;;;;;;;6.90;6.20;;;;;;;;;;6172596;23;20412;-72
2023/08/18 10:18:23;;;;;;;6.40;5.50;;;;;;;;;;6173000;23;20377;-72
2023/08/18 10:20:52;;;;;;;7.20;6.60;;;;;;;;;;6170967;23;20436;-72
2023/08/18 10:23:24;;;;;;;6.90;6.30;;;;;;;;;;6171380;23;20777;-72
2023/08/18 10:25:54;;;;;;;7.33;6.47;;;;;;;;;;6174019;23;20698;-72
2023/08/18 10:28:24;;;;;;;7.07;6.37;;;;;;;;;;6146548;23;20405;-72
2023/08/18 10:30:57;;;;;;;5.90;5.40;;;;;;;;;;6173769;23;20858;-72
2023/08/18 10:33:31;;;;;;;6.77;5.90;;;;;;;;;;6173745;23;20395;-72
2023/08/18 10:36:00;;;;;;;7.20;6.57;;;;;;;;;;6170386;23;20440;-72
2023/08/18 10:38:30;;;;;;;7.23;6.53;;;;;;;;;;6172171;23;20405;-72
2023/08/18 10:40:59;;;;;;;6.70;6.00;;;;;;;;;;6172555;23;20389;-72
2023/08/18 10:43:28;;;;;;;7.10;6.30;;;;;;;;;;6171240;23;20423;-72
2023/08/18 10:46:00;;;;;;;6.10;5.60;;;;;;;;;;6171686;23;20425;-72
2023/08/18 10:48:29;;;;;;;6.17;5.57;;;;;;;;;;6172006;23;20389;-72
2023/08/18 10:50:57;;;;;;;6.27;5.67;;;;;;;;;;6171067;23;20392;-72
2023/08/18 10:53:26;;;;;;;6.63;6.00;;;;;;;;;;6171983;23;20842;-72
2023/08/18 10:55:56;;;;;;;7.10;6.37;;;;;;;;;;6170480;23;20449;-72
2023/08/18 10:58:25;;;;;;;6.80;6.10;;;;;;;;;;6172046;23;20420;-72
2023/08/18 11:00:53;;;;;;;6.63;6.00;;;;;;;;;;6170406;23;20905;-72
2023/08/18 11:03:22;;;;;;;6.33;5.73;;;;;;;;;;6171667;23;20389;-72
2023/08/18 11:05:51;;;;;;;7.10;6.40;;;;;;;;;;6170152;23;20433;-72
2023/08/18 11:08:20;;;;;;;6.47;5.87;;;;;;;;;;6171623;23;20419;-71
2023/08/18 11:10:48;;;;;;;7.00;6.47;;;;;;;;;;6171513;23;20647;-71
2023/08/18 11:13:26;;;;;;;5.80;5.27;;;;;;;;;;6171149;23;20695;-71
2023/08/18 11:15:55;;;;;;;7.43;6.73;;;;;;;;;;6170393;23;20962;-72
2023/08/18 11:18:24;;;;;;;7.27;6.67;;;;;;;;;;6172117;23;20433;-72
2023/08/18 11:20:57;;;;;;;5.87;5.37;;;;;;;;;;6169489;23;21000;-71
2023/08/18 11:23:27;;;;;;;12.67;11.47;;;;;;;;;;6170810;23;20428;-72
2023/08/18 11:25:55;;;;;;;14.60;13.10;;;;;;;;;;6170223;23;20444;-72
2023/08/18 11:28:26;;;;;;;12.33;11.13;;;;;;;;;;6171658;23;20397;-72
2023/08/18 11:30:57;;;;;;;12.10;10.80;;;;;;;;;;6170399;23;20443;-72
2023/08/18 11:33:26;;;;;;;12.20;11.10;;;;;;;;;;6171051;23;20373;-72
2023/08/18 11:35:55;;;;;;;11.63;9.77;;;;;;;;;;6169985;23;20494;-72
2023/08/18 11:38:24;;;;;;;12.60;11.40;;;;;;;;;;6172294;23;20429;-72
2023/08/18 11:40:53;;;;;;;11.37;10.33;;;;;;;;;;6171709;23;20450;-72
2023/08/18 11:43:23;;;;;;;11.13;10.13;;;;;;;;;;6171081;23;20393;-72
2023/08/18 11:45:53;;;;;;;10.40;9.20;;;;;;;;;;6172507;23;20432;-72
2023/08/18 11:48:23;;;;;;;10.00;9.07;;;;;;;;;;6172217;23;20436;-72
2023/08/18 11:50:56;;;;;;;10.53;9.53;;;;;;;;;;6170995;23;20377;-72
2023/08/18 11:53:26;;;;;;;9.80;8.80;;;;;;;;;;6171313;23;20882;-72
2023/08/18 11:55:57;;;;;;;10.03;8.77;;;;;;;;;;6170984;23;20832;-72
2023/08/18 11:58:26;;;;;;;10.00;8.10;;;;;;;;;;6171197;23;20408;-72
2023/08/18 12:00:56;;;;;;;8.83;8.03;;;;;;;;;;6172313;23;20397;-72
2023/08/18 12:03:25;;;;;;;9.93;9.07;;;;;;;;;;6171020;23;20426;-72
2023/08/18 12:05:55;;;;;;;8.97;8.10;;;;;;;;;;6168664;23;20432;-72
2023/08/18 12:08:24;;;;;;;7.80;7.10;;;;;;;;;;6173425;23;20890;-72
2023/08/18 12:10:54;;;;;;;8.83;8.03;;;;;;;;;;6171867;23;20396;-72
2023/08/18 12:13:23;;;;;;;8.27;7.50;;;;;;;;;;6169787;23;20859;-72
2023/08/18 12:15:52;;;;;;;8.57;7.67;;;;;;;;;;6170050;23;20432;-72
2023/08/18 12:18:22;;;;;;;8.40;7.70;;;;;;;;;;6171760;23;20940;-72
2023/08/18 12:20:50;;;;;;;8.83;7.20;;;;;;;;;;6170858;22;20929;-72
2023/08/18 12:23:19;;;;;;;8.20;7.47;;;;;;;;;;6170233;23;20404;-72
2023/08/18 12:25:48;;;;;;;8.40;7.60;;;;;;;;;;6171879;23;20500;-72
2023/08/18 12:28:17;;;;;;;7.40;6.80;;;;;;;;;;6171746;23;20378;-72
2023/08/18 12:30:46;;;;;;;7.90;7.17;;;;;;;;;;6171354;23;20389;-72
2023/08/18 12:33:15;;;;;;;7.43;6.73;;;;;;;;;;6169658;23;20381;-72
2023/08/18 12:35:45;;;;;;;7.70;7.00;;;;;;;;;;6170682;23;20389;-72
2023/08/18 12:38:14;;;;;;;7.83;7.13;;;;;;;;;;6171687;23;20858;-72
2023/08/18 12:40:42;;;;;;;7.70;7.10;;;;;;;;;;6170685;23;20520;-72
2023/08/18 12:43:11;;;;;;;11.00;9.50;;;;;;;;;;6170265;23;20878;-74
2023/08/18 12:45:39;;;;;;;11.23;10.23;;;;;;;;;;6168986;23;20396;-71
2023/08/18 12:48:08;;;;;;;11.13;10.13;;;;;;;;;;6172436;23;20158;-72
2023/08/18 12:50:37;;;;;;;9.57;7.83;;;;;;;;;;6170839;23;20403;-72
2023/08/18 12:53:07;;;;;;;10.23;9.33;;;;;;;;;;6170381;23;20414;-72
2023/08/18 12:55:36;;;;;;;10.57;9.70;;;;;;;;;;6172199;23;20437;-72
2023/08/18 12:58:04;;;;;;;9.70;8.80;;;;;;;;;;6171033;23;20427;-72
2023/08/18 13:00:33;;;;;;;9.60;8.70;;;;;;;;;;6172876;23;20389;-72
2023/08/18 13:03:02;;;;;;;9.33;8.43;;;;;;;;;;6171229;23;20429;-72
2023/08/18 13:05:31;;;;;;;9.27;8.47;;;;;;;;;;6170245;23;20436;-72
2023/08/18 13:08:00;;;;;;;9.53;8.63;;;;;;;;;;6171962;23;20409;-72
2023/08/18 13:10:30;;;;;;;9.27;8.43;;;;;;;;;;6172130;23;20433;-72
2023/08/18 13:13:01;;;;;;;10.10;9.10;;;;;;;;;;6171287;23;20420;-72
2023/08/18 13:15:29;;;;;;;8.57;7.83;;;;;;;;;;6170980;23;20433;-72
2023/08/18 13:17:58;;;;;;;10.87;8.10;;;;;;;;;;6171475;23;20516;-72
2023/08/18 13:20:27;;;;;;;9.00;8.30;;;;;;;;;;6169284;23;20444;-68
2023/08/18 13:22:55;;;;;;;8.33;7.67;;;;;;;;;;6169127;23;20381;-68
2023/08/18 13:25:35;;;;;;;7.83;7.07;;;;;;;;;;6171027;23;20457;-68
2023/08/18 13:28:04;;;;;;;7.87;7.17;;;;;;;;;;6170575;23;20424;-68
2023/08/18 13:30:32;;;;;;;10.03;7.90;;;;;;;;;;6171456;23;20385;-68
2023/08/18 13:33:01;;;;;;;8.90;8.10;;;;;;;;;;6170466;23;20397;-68